createdAt,value
2019-06-07T00:01:21.344Z,100298.33
2019-06-07T00:02:57.951Z,100283.52
2019-06-07T00:04:33.503Z,100264.75
2019-06-07T00:06:14.546Z,100254.73
2019-06-07T00:07:47.404Z,100257.01
2019-06-07T00:09:23.745Z,100260.13
2019-06-07T00:10:59.295Z,100251.22
2019-06-07T00:12:35.648Z,100250.72
2019-06-07T00:14:14.673Z,100253.81
2019-06-07T00:15:49.259Z,100262.85
2019-06-07T00:17:24.817Z,100267.63
2019-06-07T00:19:01.207Z,100270.75
2019-06-07T00:20:36.789Z,100272.70
2019-06-07T00:22:18.306Z,100283.08
2019-06-07T00:23:50.380Z,100281.42
2019-06-07T00:25:26.720Z,100290.94
2019-06-07T00:28:37.462Z,100285.88
2019-06-07T00:30:44.628Z,100290.63
2019-06-07T00:31:53.271Z,100293.42
2019-06-07T00:33:29.028Z,100292.61
2019-06-07T00:35:09.126Z,100291.47
2019-06-07T00:36:44.972Z,100290.63
2019-06-07T00:38:21.935Z,100302.98
2019-06-07T00:40:13.534Z,100309.39
2019-06-07T00:41:35.768Z,100288.47
2019-06-07T00:43:16.363Z,100289.80
2019-06-07T00:44:49.373Z,100299.02
2019-06-07T00:46:25.399Z,100288.99
2019-06-07T00:49:41.085Z,100279.27
2019-06-07T00:54:28.419Z,100271.05
2019-06-07T00:56:04.043Z,100271.05
2019-06-07T00:57:40.635Z,100267.43
2019-06-07T00:59:19.149Z,100273.84
2019-06-07T01:00:54.488Z,100272.21
2019-06-07T01:02:31.662Z,100268.56
2019-06-07T01:05:43.799Z,100261.96
2019-06-07T01:07:21.923Z,100257.83
2019-06-07T01:08:58.612Z,100265.70
2019-06-07T01:10:52.320Z,100273.59
2019-06-07T01:12:14.125Z,100288.71
2019-06-07T01:13:50.306Z,100292.15
2019-06-07T01:15:29.268Z,100304.47
2019-06-07T01:17:27.747Z,100304.79
2019-06-07T01:18:52.857Z,100302.31
2019-06-07T01:20:28.413Z,100300.42
2019-06-07T01:22:05.148Z,100308.80
2019-06-07T01:25:23.875Z,100307.67
2019-06-07T01:26:58.081Z,100314.40
2019-06-07T01:28:34.421Z,100313.58
2019-06-07T01:30:12.258Z,100314.72
2019-06-07T01:31:48.591Z,100310.27
2019-06-07T01:33:39.650Z,100297.42
2019-06-07T01:35:02.213Z,100292.95
2019-06-07T01:36:37.771Z,100298.88
2019-06-07T01:38:14.354Z,100292.95
2019-06-07T01:39:50.246Z,100287.37
2019-06-07T01:41:28.385Z,100277.84
2019-06-07T01:43:03.840Z,100275.90
2019-06-07T01:44:40.182Z,100263.87
2019-06-07T01:46:15.852Z,100267.80
2019-06-07T01:47:53.169Z,100265.33
2019-06-07T01:49:29.739Z,100265.97
2019-06-07T01:51:07.626Z,100266.28
2019-06-07T01:52:43.261Z,100276.12
2019-06-07T01:54:52.229Z,100267.53
2019-06-07T01:55:57.188Z,100266.72
2019-06-07T01:57:45.655Z,100275.71
2019-06-07T01:59:11.097Z,100271.58
2019-06-07T02:00:48.308Z,100263.52
2019-06-07T02:02:28.068Z,100267.44
2019-06-07T02:04:02.051Z,100276.96
2019-06-07T02:05:38.345Z,100275.63
2019-06-07T02:07:14.717Z,100288.78
2019-06-07T02:08:50.257Z,100297.48
2019-06-07T02:10:30.296Z,100310.92
2019-06-07T02:12:23.065Z,100299.74
2019-06-07T02:13:42.542Z,100309.58
2019-06-07T02:15:21.694Z,100309.90
2019-06-07T02:16:56.541Z,100312.19
2019-06-07T02:18:34.373Z,100312.80
2019-06-07T02:20:10.980Z,100307.52
2019-06-07T02:21:47.041Z,100310.64
2019-06-07T02:23:27.542Z,100310.95
2019-06-07T02:26:38.744Z,100318.28
2019-06-07T02:28:38.487Z,100321.92
2019-06-07T02:29:52.351Z,100317.46
2019-06-07T02:31:36.257Z,100316.64
2019-06-07T02:33:06.073Z,100315.48
2019-06-07T02:34:41.586Z,100324.71
2019-06-07T02:36:18.336Z,100309.89
2019-06-07T02:37:53.892Z,100302.68
2019-06-07T02:39:34.494Z,100304.63
2019-06-07T02:41:07.822Z,100310.21
2019-06-07T02:42:44.416Z,100308.87
2019-06-07T02:44:19.955Z,100302.78
2019-06-07T02:45:56.295Z,100308.66
2019-06-07T02:47:35.943Z,100315.08
2019-06-07T02:49:09.905Z,100320.14
2019-06-07T02:50:45.641Z,100321.59
2019-06-07T02:52:27.356Z,100311.58
2019-06-07T02:53:59.508Z,100320.23
2019-06-07T02:56:26.364Z,100312.17
2019-06-07T02:57:13.114Z,100306.91
2019-06-07T02:58:49.447Z,100312.81
2019-06-07T03:01:05.492Z,100302.23
2019-06-07T03:02:26.547Z,100307.33
2019-06-07T03:04:02.041Z,100307.98
2019-06-07T03:05:45.336Z,100314.20
2019-06-07T03:07:22.089Z,100312.03
2019-06-07T03:08:58.794Z,100321.85
2019-06-07T03:10:37.819Z,100312.13
2019-06-07T03:12:14.822Z,100313.57
2019-06-07T03:13:51.339Z,100320.59
2019-06-07T03:15:44.644Z,100318.94
2019-06-07T03:17:34.881Z,100323.17
2019-06-07T03:19:10.412Z,100317.90
2019-06-07T03:21:04.562Z,100315.82
2019-06-07T03:22:26.817Z,100318.89
2019-06-07T03:24:03.433Z,100320.87
2019-06-07T03:25:40.524Z,100322.84
2019-06-07T03:27:43.213Z,100316.72
2019-06-07T03:28:56.858Z,100317.85
2019-06-07T03:30:48.033Z,100318.17
2019-06-07T03:32:10.763Z,100324.06
2019-06-07T03:33:47.088Z,100318.79
2019-06-07T03:35:22.635Z,100322.70
2019-06-07T03:36:58.979Z,100317.44
2019-06-07T03:38:35.352Z,100318.56
2019-06-07T03:40:13.214Z,100327.25
2019-06-07T03:42:05.098Z,100309.97
2019-06-07T03:43:27.422Z,100315.86
2019-06-07T03:45:03.517Z,100318.34
2019-06-07T03:46:41.416Z,100315.55
2019-06-07T03:48:17.117Z,100317.21
2019-06-07T03:49:53.777Z,100318.56
2019-06-07T03:51:30.616Z,100326.31
2019-06-07T03:53:07.384Z,100321.27
2019-06-07T03:54:43.024Z,100335.72
2019-06-07T03:56:19.730Z,100341.53
2019-06-07T03:59:37.416Z,100338.56
2019-06-07T04:01:10.813Z,100341.27
2019-06-07T04:02:47.435Z,100344.78
2019-06-07T04:04:22.959Z,100342.75
2019-06-07T04:05:59.301Z,100335.09
2019-06-07T04:07:38.779Z,100351.47
2019-06-07T04:09:12.997Z,100339.89
2019-06-07T04:10:59.667Z,100343.75
2019-06-07T04:12:28.561Z,100345.28
2019-06-07T04:14:04.396Z,100338.25
2019-06-07T04:15:41.470Z,100339.28
2019-06-07T04:17:18.139Z,100341.47
2019-06-07T04:18:54.490Z,100344.77
2019-06-07T04:20:32.594Z,100346.11
2019-06-07T04:22:08.084Z,100344.16
2019-06-07T04:23:45.689Z,100339.08
2019-06-07T04:25:21.952Z,100347.17
2019-06-07T04:26:58.773Z,100345.20
2019-06-07T04:29:25.573Z,100352.13
2019-06-07T04:30:13.303Z,100347.89
2019-06-07T04:31:49.640Z,100348.38
2019-06-07T04:33:25.473Z,100348.09
2019-06-07T04:35:01.811Z,100346.65
2019-06-07T04:36:52.753Z,100346.33
2019-06-07T04:38:16.518Z,100352.42
2019-06-07T04:39:53.821Z,100351.28
2019-06-07T04:41:33.437Z,100344.25
2019-06-07T04:43:10.811Z,100349.52
2019-06-07T04:44:49.692Z,100353.97
2019-06-07T04:46:25.389Z,100348.59
2019-06-07T04:48:04.131Z,100346.30
2019-06-07T04:49:43.466Z,100352.42
2019-06-07T04:51:19.238Z,100358.54
2019-06-07T04:52:54.924Z,100350.97
2019-06-07T04:54:32.946Z,100353.97
2019-06-07T04:56:08.523Z,100346.08
2019-06-07T04:57:45.011Z,100347.13
2019-06-07T05:00:00.784Z,100339.23
2019-06-07T05:01:03.739Z,100344.26
2019-06-07T05:02:42.745Z,100345.57
2019-06-07T05:04:17.120Z,100348.57
2019-06-07T05:05:52.738Z,100345.66
2019-06-07T05:07:30.971Z,100352.16
2019-06-07T05:09:07.670Z,100349.77
2019-06-07T05:10:44.223Z,100347.05
2019-06-07T05:12:20.224Z,100340.37
2019-06-07T05:13:59.336Z,100351.31
2019-06-07T05:15:37.171Z,100350.41
2019-06-07T05:17:12.962Z,100342.31
2019-06-07T05:18:48.535Z,100340.25
2019-06-07T05:20:24.875Z,100339.33
2019-06-07T05:22:04.906Z,100336.44
2019-06-07T05:25:17.227Z,100345.14
2019-06-07T05:26:53.644Z,100348.34
2019-06-07T05:28:29.977Z,100346.75
2019-06-07T05:30:36.560Z,100348.24
2019-06-07T05:31:49.596Z,100342.49
2019-06-07T05:33:26.399Z,100348.44
2019-06-07T05:35:02.824Z,100350.78
2019-06-07T05:36:42.503Z,100341.86
2019-06-07T05:38:16.914Z,100344.49
2019-06-07T05:39:53.305Z,100345.13
2019-06-07T05:41:29.808Z,100344.56
2019-06-07T05:43:07.571Z,100349.20
2019-06-07T05:44:45.453Z,100348.16
2019-06-07T05:46:21.179Z,100353.91
2019-06-07T05:47:56.734Z,100358.47
2019-06-07T05:49:35.562Z,100342.84
2019-06-07T05:51:10.733Z,100351.41
2019-06-07T05:52:47.675Z,100355.81
2019-06-07T05:54:23.720Z,100362.70
2019-06-07T05:56:00.070Z,100351.04
2019-06-07T05:57:37.651Z,100357.08
2019-06-07T05:59:14.980Z,100351.03
2019-06-07T06:00:51.066Z,100355.09
2019-06-07T06:02:27.631Z,100350.73
2019-06-07T06:04:03.992Z,100352.41
2019-06-07T06:05:45.851Z,100346.13
2019-06-07T06:07:17.599Z,100342.66
2019-06-07T06:09:12.810Z,100351.64
2019-06-07T06:10:34.224Z,100353.78
2019-06-07T06:12:10.565Z,100345.33
2019-06-07T06:14:06.120Z,100343.45
2019-06-07T06:15:41.539Z,100349.92
2019-06-07T06:17:01.609Z,100350.77
2019-06-07T06:18:38.132Z,100344.28
2019-06-07T06:20:14.271Z,100339.44
2019-06-07T06:21:50.630Z,100344.68
2019-06-07T06:23:26.204Z,100337.84
2019-06-07T06:25:30.806Z,100331.79
2019-06-07T06:26:47.664Z,100338.58
2019-06-07T06:28:18.241Z,100334.40
2019-06-07T06:29:53.793Z,100336.44
2019-06-07T06:31:30.216Z,100336.02
2019-06-07T06:33:06.808Z,100342.45
2019-06-07T06:34:46.957Z,100342.01
2019-06-07T06:36:21.421Z,100337.89
2019-06-07T06:37:59.455Z,100339.89
2019-06-07T06:39:35.595Z,100345.92
2019-06-07T06:41:16.243Z,100353.63
2019-06-07T06:42:50.630Z,100345.13
2019-06-07T06:44:27.273Z,100347.14
2019-06-07T06:46:02.857Z,100352.03
2019-06-07T06:47:40.686Z,100353.90
2019-06-07T06:49:16.386Z,100351.23
2019-06-07T06:50:52.883Z,100353.22
2019-06-07T06:52:29.473Z,100356.89
2019-06-07T06:54:05.859Z,100356.13
2019-06-07T06:55:41.700Z,100353.00
2019-06-07T06:57:20.187Z,100354.69
2019-06-07T07:00:56.953Z,100343.96
2019-06-07T07:02:26.334Z,100338.02
2019-06-07T07:04:11.991Z,100334.84
2019-06-07T07:05:41.489Z,100339.09
2019-06-07T07:07:18.505Z,100337.27
2019-06-07T07:08:55.275Z,100341.48
2019-06-07T07:10:46.153Z,100339.20
2019-06-07T07:12:23.760Z,100346.72
2019-06-07T07:13:59.662Z,100334.73
2019-06-07T07:15:36.001Z,100338.08
2019-06-07T07:17:12.553Z,100339.34
2019-06-07T07:18:51.616Z,100338.47
2019-06-07T07:20:26.420Z,100335.95
2019-06-07T07:22:02.768Z,100337.02
2019-06-07T07:23:38.310Z,100341.23
2019-06-07T07:25:14.844Z,100331.28
2019-06-07T07:26:53.879Z,100337.90
2019-06-07T07:28:29.050Z,100342.47
2019-06-07T07:31:50.306Z,100345.60
2019-06-07T07:33:23.833Z,100347.42
2019-06-07T07:35:00.851Z,100353.69
2019-06-07T07:36:40.048Z,100351.44
2019-06-07T07:38:16.516Z,100352.37
2019-06-07T07:40:00.889Z,100360.61
2019-06-07T07:41:30.122Z,100355.55
2019-06-07T07:43:06.494Z,100365.80
2019-06-07T07:44:43.256Z,100358.68
2019-06-07T07:46:29.250Z,100363.63
2019-06-07T07:48:13.770Z,100366.53
2019-06-07T07:49:35.601Z,100363.78
2019-06-07T07:51:11.974Z,100365.91
2019-06-07T07:52:49.118Z,100369.62
2019-06-07T07:54:25.708Z,100371.36
2019-06-07T07:56:01.430Z,100370.09
2019-06-07T07:57:37.873Z,100379.09
2019-06-07T07:59:13.418Z,100365.40
2019-06-07T08:00:54.884Z,100366.27
2019-06-07T08:02:28.646Z,100373.60
2019-06-07T08:04:05.021Z,100369.15
2019-06-07T08:05:43.329Z,100367.62
2019-06-07T08:07:18.888Z,100364.94
2019-06-07T08:08:56.964Z,100370.73
2019-06-07T08:10:32.882Z,100364.48
2019-06-07T08:12:08.401Z,100365.93
2019-06-07T08:13:45.686Z,100375.57
2019-06-07T08:15:21.484Z,100361.45
2019-06-07T08:16:59.270Z,100368.03
2019-06-07T08:18:34.912Z,100360.98
2019-06-07T08:20:11.825Z,100360.38
2019-06-07T08:21:49.109Z,100370.34
2019-06-07T08:23:26.741Z,100364.56
2019-06-07T08:25:04.456Z,100367.61
2019-06-07T08:26:41.849Z,100365.83
2019-06-07T08:28:18.372Z,100358.86
2019-06-07T08:30:18.488Z,100365.55
2019-06-07T08:31:32.977Z,100362.10
2019-06-07T08:33:25.512Z,100366.77
2019-06-07T08:34:49.067Z,100372.74
2019-06-07T08:36:40.787Z,100366.46
2019-06-07T08:39:40.501Z,100362.73
2019-06-07T08:41:16.440Z,100375.33
2019-06-07T08:43:10.873Z,100364.23
2019-06-07T08:44:30.462Z,100370.09
2019-06-07T08:46:08.007Z,100364.97
2019-06-07T08:47:44.979Z,100363.89
2019-06-07T08:49:21.301Z,100357.97
2019-06-07T08:51:06.561Z,100366.98
2019-06-07T08:52:37.975Z,100368.36
2019-06-07T08:54:22.533Z,100366.91
2019-06-07T08:55:58.318Z,100370.27
2019-06-07T08:57:28.867Z,100362.69
2019-06-07T08:59:11.133Z,100351.46
2019-06-07T09:00:46.527Z,100356.88
2019-06-07T09:02:23.826Z,100351.74
2019-06-07T09:04:05.778Z,100356.75
2019-06-07T09:05:36.390Z,100350.45
2019-06-07T09:07:19.580Z,100351.12
2019-06-07T09:08:51.937Z,100342.61
2019-06-07T09:10:30.064Z,100350.60
2019-06-07T09:12:10.811Z,100356.44
2019-06-07T09:13:43.975Z,100354.49
2019-06-07T09:15:23.850Z,100345.61
2019-06-07T09:17:02.576Z,100343.32
2019-06-07T09:18:43.151Z,100345.02
2019-06-07T09:20:35.889Z,100348.73
2019-06-07T09:21:54.604Z,100337.05
2019-06-07T09:23:31.359Z,100333.84
2019-06-07T09:25:20.647Z,100335.53
2019-06-07T09:26:48.740Z,100343.69
2019-06-07T09:28:25.901Z,100332.35
2019-06-07T09:30:07.651Z,100332.35
2019-06-07T09:31:51.967Z,100334.72
2019-06-07T09:33:16.873Z,100333.08
2019-06-07T09:34:53.202Z,100325.46
2019-06-07T09:36:28.758Z,100330.98
2019-06-07T09:38:18.029Z,100333.23
2019-06-07T09:39:43.177Z,100321.62
2019-06-07T09:41:19.514Z,100328.37
2019-06-07T09:43:48.187Z,100323.02
2019-06-07T09:44:33.562Z,100325.73
2019-06-07T09:46:12.822Z,100327.86
2019-06-07T09:47:47.350Z,100314.51
2019-06-07T09:49:31.886Z,100322.57
2019-06-07T09:51:09.723Z,100315.51
2019-06-07T09:52:57.223Z,100315.31
2019-06-07T09:55:02.611Z,100320.88
2019-06-07T09:55:54.666Z,100315.07
2019-06-07T09:57:31.040Z,100320.64
2019-06-07T09:59:11.760Z,100313.64
2019-06-07T10:00:44.701Z,100311.11
2019-06-07T10:02:20.314Z,100305.37
2019-06-07T10:04:02.378Z,100311.84
2019-06-07T10:05:34.248Z,100310.66
2019-06-07T10:07:28.614Z,100314.19
2019-06-07T10:12:04.570Z,100302.78
2019-06-07T10:13:41.399Z,100303.09
2019-06-07T10:15:17.903Z,100314.73
2019-06-07T10:16:54.235Z,100310.12
2019-06-07T10:18:29.805Z,100307.16
2019-06-07T10:20:08.066Z,100312.67
2019-06-07T10:21:43.625Z,100302.39
2019-06-07T10:23:19.994Z,100309.05
2019-06-07T10:24:55.717Z,100298.31
2019-06-07T10:26:32.377Z,100300.63
2019-06-07T10:28:08.442Z,100292.13
2019-06-07T10:29:45.731Z,100296.31
2019-06-07T10:31:21.312Z,100291.63
2019-06-07T10:32:57.637Z,100283.75
2019-06-07T10:34:33.240Z,100285.14
2019-06-07T10:36:10.729Z,100291.48
2019-06-07T10:37:46.435Z,100278.80
2019-06-07T10:39:23.044Z,100268.22
2019-06-07T10:40:58.608Z,100274.00
2019-06-07T10:42:34.959Z,100271.39
2019-06-07T10:44:11.451Z,100273.53
2019-06-07T10:45:47.936Z,100274.07
2019-06-07T10:47:23.496Z,100272.58
2019-06-07T10:49:00.091Z,100274.59
2019-06-07T10:50:35.681Z,100255.02
2019-06-07T10:52:13.330Z,100259.34
2019-06-07T10:53:48.981Z,100263.56
2019-06-07T10:55:25.653Z,100259.69
2019-06-07T10:57:02.841Z,100260.70
2019-06-07T10:58:39.263Z,100256.01
2019-06-07T11:00:17.529Z,100254.56
2019-06-07T11:01:54.106Z,100251.95
2019-06-07T11:03:29.677Z,100250.92
2019-06-07T11:05:12.147Z,100248.27
2019-06-07T11:06:46.341Z,100239.12
2019-06-07T11:08:24.798Z,100240.95
2019-06-07T11:10:07.548Z,100249.20
2019-06-07T11:11:38.498Z,100235.66
2019-06-07T11:13:14.494Z,100231.10
2019-06-07T11:14:51.025Z,100238.41
2019-06-07T11:16:26.597Z,100231.19
2019-06-07T11:18:03.021Z,100228.78
2019-06-07T11:19:38.665Z,100226.33
2019-06-07T11:21:16.280Z,100229.24
2019-06-07T11:22:52.079Z,100238.62
2019-06-07T11:24:28.408Z,100232.75
2019-06-07T11:26:03.982Z,100227.30
2019-06-07T11:27:40.330Z,100224.16
2019-06-07T11:29:15.984Z,100238.86
2019-06-07T11:30:52.415Z,100229.94
2019-06-07T11:32:28.121Z,100229.02
2019-06-07T11:34:04.471Z,100226.87
2019-06-07T11:35:40.018Z,100221.05
2019-06-07T11:37:16.425Z,100220.88
2019-06-07T11:38:53.048Z,100227.30
2019-06-07T11:40:35.326Z,100218.73
2019-06-07T11:42:07.934Z,100225.23
2019-06-07T11:43:44.799Z,100226.87
2019-06-07T11:45:23.753Z,100226.55
2019-06-07T11:46:59.036Z,100229.92
2019-06-07T11:48:34.612Z,100212.55
2019-06-07T11:50:11.910Z,100214.27
2019-06-07T11:51:47.480Z,100215.23
2019-06-07T11:53:23.826Z,100216.66
2019-06-07T11:54:59.718Z,100205.97
2019-06-07T11:56:36.376Z,100209.00
2019-06-07T11:58:16.452Z,100198.75
2019-06-07T11:59:49.952Z,100203.54
2019-06-07T12:01:25.526Z,100203.52
2019-06-07T12:03:02.201Z,100203.02
2019-06-07T12:04:38.036Z,100208.92
2019-06-07T12:06:15.979Z,100194.08
2019-06-07T12:07:56.984Z,100194.24
2019-06-07T12:09:31.925Z,100197.67
2019-06-07T12:11:08.076Z,100190.55
2019-06-07T12:12:44.737Z,100184.58
2019-06-07T12:14:20.285Z,100185.44
2019-06-07T12:15:56.905Z,100177.35
2019-06-07T12:17:32.444Z,100181.05
2019-06-07T12:19:09.718Z,100177.46
2019-06-07T12:20:45.402Z,100168.63
2019-06-07T12:22:21.730Z,100169.97
2019-06-07T12:23:57.450Z,100170.13
2019-06-07T12:25:33.850Z,100177.85
2019-06-07T12:27:10.321Z,100175.38
2019-06-07T12:28:47.983Z,100168.38
2019-06-07T12:30:28.077Z,100159.04
2019-06-07T12:32:04.764Z,100161.48
2019-06-07T12:33:40.290Z,100159.12
2019-06-07T12:35:19.824Z,100153.95
2019-06-07T12:36:55.586Z,100156.91
2019-06-07T12:38:31.900Z,100154.17
2019-06-07T12:40:09.939Z,100153.06
2019-06-07T12:41:46.307Z,100156.41
2019-06-07T12:43:23.211Z,100155.25
2019-06-07T12:44:59.785Z,100151.19
2019-06-07T12:46:35.668Z,100151.59
2019-06-07T12:48:16.301Z,100144.30
2019-06-07T12:49:49.580Z,100149.61
2019-06-07T12:51:26.053Z,100139.44
2019-06-07T12:53:01.854Z,100147.95
2019-06-07T12:54:38.188Z,100144.27
2019-06-07T12:56:13.770Z,100134.50
2019-06-07T12:57:50.080Z,100141.02
2019-06-07T12:59:26.704Z,100141.42
2019-06-07T13:01:03.056Z,100130.79
2019-06-07T13:02:38.691Z,100137.31
2019-06-07T13:04:16.262Z,100132.43
2019-06-07T13:05:52.001Z,100115.79
2019-06-07T13:07:28.355Z,100121.50
2019-06-07T13:09:04.510Z,100109.36
2019-06-07T13:10:40.815Z,100113.44
2019-06-07T13:12:17.543Z,100121.97
2019-06-07T13:13:53.970Z,100122.80
2019-06-07T13:15:29.525Z,100113.89
2019-06-07T13:17:05.863Z,100115.90
2019-06-07T13:18:41.586Z,100112.64
2019-06-07T13:20:20.435Z,100116.30
2019-06-07T13:21:56.061Z,100104.52
2019-06-07T13:23:32.394Z,100104.11
2019-06-07T13:25:09.366Z,100103.30
2019-06-07T13:26:45.724Z,100095.56
2019-06-07T13:28:22.661Z,100096.00
2019-06-07T13:29:59.475Z,100103.33
2019-06-07T13:31:35.012Z,100100.88
2019-06-07T13:33:11.339Z,100097.66
2019-06-07T13:34:46.890Z,100093.19
2019-06-07T13:36:24.373Z,100089.91
2019-06-07T13:38:00.467Z,100093.56
2019-06-07T13:39:36.812Z,100085.02
2019-06-07T13:41:12.378Z,100078.97
2019-06-07T13:42:48.866Z,100072.08
2019-06-07T13:44:25.383Z,100083.10
2019-06-07T13:46:01.725Z,100083.12
2019-06-07T13:47:37.353Z,100076.59
2019-06-07T13:49:13.693Z,100091.25
2019-06-07T13:50:49.235Z,100074.55
2019-06-07T13:52:25.568Z,100078.22
2019-06-07T13:54:02.461Z,100086.34
2019-06-07T13:55:38.788Z,100092.86
2019-06-07T13:57:14.338Z,100081.02
2019-06-07T13:58:50.667Z,100069.17
2019-06-07T14:00:26.779Z,100069.56
2019-06-07T14:02:03.308Z,100069.12
2019-06-07T14:03:38.847Z,100072.77
2019-06-07T14:05:15.517Z,100056.45
2019-06-07T14:06:51.054Z,100058.88
2019-06-07T14:08:27.766Z,100062.91
2019-06-07T14:10:06.689Z,100057.50
2019-06-07T14:11:50.620Z,100051.73
2019-06-07T14:13:21.463Z,100047.96
2019-06-07T14:14:57.945Z,100043.78
2019-06-07T14:16:33.498Z,100051.77
2019-06-07T14:18:09.827Z,100039.84
2019-06-07T14:19:45.432Z,100036.48
2019-06-07T14:21:22.540Z,100038.75
2019-06-07T14:22:59.503Z,100036.17
2019-06-07T14:24:35.890Z,100035.58
2019-06-07T14:26:11.448Z,100035.81
2019-06-07T14:27:47.807Z,100027.46
2019-06-07T14:29:23.632Z,100030.17
2019-06-07T14:31:00.040Z,100022.34
2019-06-07T14:32:35.638Z,100029.52
2019-06-07T14:34:11.973Z,100021.28
2019-06-07T14:35:47.510Z,100022.36
2019-06-07T14:37:24.851Z,100021.80
2019-06-07T14:39:01.894Z,100015.23
2019-06-07T14:40:39.986Z,100020.33
2019-06-07T14:42:15.523Z,100006.84
2019-06-07T14:43:51.924Z,100009.48
2019-06-07T14:45:27.749Z,100012.22
2019-06-07T14:47:04.116Z,100013.31
2019-06-07T14:48:39.666Z,100022.12
2019-06-07T14:50:16.690Z,100010.70
2019-06-07T14:51:52.565Z,100006.92
2019-06-07T14:53:28.898Z,100010.49
2019-06-07T14:55:06.142Z,100011.26
2019-06-07T14:56:42.545Z,100011.64
2019-06-07T14:58:18.070Z,100016.05
2019-06-07T14:59:57.314Z,100012.76
2019-06-07T15:01:33.506Z,100007.02
2019-06-07T15:03:11.755Z,100010.23
2019-06-07T15:04:48.114Z,100002.13
2019-06-07T15:06:24.518Z,100011.00
2019-06-07T15:08:00.064Z,100014.64
2019-06-07T15:09:36.718Z,100015.83
2019-06-07T15:11:12.289Z,100004.16
2019-06-07T15:12:48.628Z,100000.94
2019-06-07T15:14:24.452Z,99998.49
2019-06-07T15:16:00.761Z,99991.61
2019-06-07T15:17:36.341Z,99994.83
2019-06-07T15:19:12.913Z,99983.08
2019-06-07T15:20:48.471Z,99983.44
2019-06-07T15:22:25.028Z,99985.45
2019-06-07T15:24:00.636Z,99983.44
2019-06-07T15:25:36.917Z,99985.08
2019-06-07T15:27:12.461Z,99978.61
2019-06-07T15:28:48.820Z,99982.20
2019-06-07T15:30:25.381Z,99975.28
2019-06-07T15:32:01.708Z,99972.80
2019-06-07T15:33:38.544Z,99978.84
2019-06-07T15:35:16.081Z,99978.47
2019-06-07T15:36:51.705Z,99968.41
2019-06-07T15:38:28.876Z,99966.84
2019-06-07T15:40:05.975Z,99967.67
2019-06-07T15:41:42.383Z,99960.37
2019-06-07T15:43:19.547Z,99974.52
2019-06-07T15:44:56.148Z,99968.05
2019-06-07T15:46:33.601Z,99969.66
2019-06-07T15:48:11.113Z,99968.48
2019-06-07T15:49:46.644Z,99969.36
2019-06-07T15:51:22.961Z,99969.36
2019-06-07T15:52:58.499Z,99968.62
2019-06-07T15:54:34.873Z,99972.25
2019-06-07T15:56:10.544Z,99973.52
2019-06-07T15:57:46.876Z,99965.83
2019-06-07T15:59:22.420Z,99970.30
2019-06-07T16:00:58.771Z,99965.09
2019-06-07T16:02:35.669Z,99970.81
2019-06-07T16:04:12.028Z,99964.77
2019-06-07T16:05:47.561Z,99968.41
2019-06-07T16:07:24.145Z,99963.20
2019-06-07T16:08:59.938Z,99969.66
2019-06-07T16:10:36.834Z,99972.50
2019-06-07T16:12:12.631Z,99979.34
2019-06-07T16:13:48.947Z,99966.41
2019-06-07T16:15:24.660Z,99958.66
2019-06-07T16:17:00.956Z,99962.26
2019-06-07T16:18:37.642Z,99971.48
2019-06-07T16:20:14.353Z,99956.91
2019-06-07T16:21:50.152Z,99962.13
2019-06-07T16:23:26.476Z,99962.05
2019-06-07T16:25:02.154Z,99965.64
2019-06-07T16:26:38.583Z,99960.30
2019-06-07T16:28:14.112Z,99963.06
2019-06-07T16:29:50.440Z,99962.98
2019-06-07T16:31:26.000Z,99965.74
2019-06-07T16:33:02.599Z,99953.55
2019-06-07T16:34:39.889Z,99950.64
2019-06-07T16:36:16.636Z,99944.53
2019-06-07T16:37:52.668Z,99943.27
2019-06-07T16:39:29.190Z,99948.89
2019-06-07T16:41:05.275Z,99952.45
2019-06-07T16:42:42.905Z,99957.22
2019-06-07T16:44:18.717Z,99951.95
2019-06-07T16:45:55.042Z,99945.03
2019-06-07T16:47:30.593Z,99953.05
2019-06-07T16:49:07.026Z,99959.47
2019-06-07T16:50:42.993Z,99952.17
2019-06-07T16:52:19.465Z,99949.27
2019-06-07T16:53:55.005Z,99952.47
2019-06-07T16:55:31.349Z,99943.56
2019-06-07T16:57:06.934Z,99952.05
2019-06-07T16:58:44.400Z,99940.28
2019-06-07T17:00:20.772Z,99937.83
2019-06-07T17:01:57.110Z,99942.65
2019-06-07T17:03:33.752Z,99946.31
2019-06-07T17:05:11.290Z,99935.39
2019-06-07T17:06:48.188Z,99947.05
2019-06-07T17:08:24.767Z,99948.69
2019-06-07T17:10:00.615Z,99944.59
2019-06-07T17:11:38.224Z,99948.26
2019-06-07T17:13:13.753Z,99957.92
2019-06-07T17:14:50.102Z,99951.01
2019-06-07T17:16:25.626Z,99946.91
2019-06-07T17:18:02.048Z,99953.75
2019-06-07T17:19:38.987Z,99938.81
2019-06-07T17:21:20.052Z,99944.47
2019-06-07T17:22:56.376Z,99942.80
2019-06-07T17:24:31.919Z,99937.90
2019-06-07T17:26:08.330Z,99945.16
2019-06-07T17:27:44.029Z,99948.37
2019-06-07T17:29:20.363Z,99943.09
2019-06-07T17:30:57.927Z,99943.47
2019-06-07T17:32:47.653Z,99934.91
2019-06-07T17:34:11.759Z,99932.08
2019-06-07T17:35:48.545Z,99936.55
2019-06-07T17:37:24.475Z,99941.02
2019-06-07T17:39:00.822Z,99928.45
2019-06-07T17:40:38.141Z,99925.54
2019-06-07T17:42:14.806Z,99931.11
2019-06-07T17:43:58.535Z,99927.86
2019-06-07T17:45:29.640Z,99923.39
2019-06-07T17:47:05.161Z,99922.13
2019-06-07T17:48:43.508Z,99921.29
2019-06-07T17:50:20.636Z,99927.31
2019-06-07T17:51:57.016Z,99915.93
2019-06-07T17:53:32.602Z,99923.60
2019-06-07T17:55:13.268Z,99914.66
2019-06-07T17:56:50.512Z,99918.70
2019-06-07T17:58:27.897Z,99919.05
2019-06-07T18:00:27.617Z,99908.13
2019-06-07T18:02:02.365Z,99921.06
2019-06-07T18:03:22.812Z,99916.59
2019-06-07T18:04:58.362Z,99916.59
2019-06-07T18:06:41.086Z,99924.64
2019-06-07T18:08:17.523Z,99915.33
2019-06-07T18:09:56.146Z,99918.10
2019-06-07T18:11:32.191Z,99917.27
2019-06-07T18:13:09.551Z,99918.83
2019-06-07T18:14:45.787Z,99915.57
2019-06-07T18:16:22.809Z,99913.09
2019-06-07T18:17:58.353Z,99913.47
2019-06-07T18:19:35.980Z,99914.30
2019-06-07T18:21:11.575Z,99911.82
2019-06-07T18:22:49.030Z,99904.10
2019-06-07T18:24:24.594Z,99908.48
2019-06-07T18:26:00.982Z,99908.48
2019-06-07T18:27:36.526Z,99900.38
2019-06-07T18:29:12.850Z,99910.03
2019-06-07T18:30:48.630Z,99904.27
2019-06-07T18:32:25.095Z,99898.56
2019-06-07T18:34:00.929Z,99906.58
2019-06-07T18:35:37.435Z,99903.28
2019-06-07T18:37:12.982Z,99902.86
2019-06-07T18:38:49.311Z,99901.59
2019-06-07T18:40:24.823Z,99899.48
2019-06-07T18:42:01.147Z,99893.41
2019-06-07T18:43:36.687Z,99893.78
2019-06-07T18:45:13.514Z,99891.67
2019-06-07T18:46:50.127Z,99890.86
2019-06-07T18:48:26.451Z,99889.13
2019-06-07T18:50:02.269Z,99891.52
2019-06-07T18:51:38.951Z,99887.80
2019-06-07T18:53:14.577Z,99887.34
2019-06-07T18:54:53.147Z,99891.34